createdAt,value
2022-09-18T00:00:19.452Z,0
2022-09-18T00:01:35.732Z,0
2022-09-18T00:02:52.035Z,0
2022-09-18T00:04:08.339Z,0
2022-09-18T00:05:24.620Z,0
2022-09-18T00:06:40.908Z,0
2022-09-18T00:07:57.206Z,0
2022-09-18T00:09:12.516Z,0
2022-09-18T00:10:28.812Z,0
2022-09-18T00:11:45.104Z,0
2022-09-18T00:13:01.411Z,0
2022-09-18T00:14:17.692Z,0
2022-09-18T00:15:33.997Z,0
2022-09-18T00:16:50.285Z,0
2022-09-18T00:18:06.574Z,0
2022-09-18T00:19:22.884Z,0
2022-09-18T00:20:39.170Z,0
2022-09-18T00:21:55.458Z,0
2022-09-18T00:23:11.758Z,0
2022-09-18T00:24:28.057Z,0
2022-09-18T00:25:43.361Z,0
2022-09-18T00:26:59.657Z,0
2022-09-18T00:28:15.959Z,0
2022-09-18T00:29:32.244Z,0
2022-09-18T00:30:48.535Z,0
2022-09-18T00:32:04.835Z,0
2022-09-18T00:33:21.120Z,0
2022-09-18T00:34:37.432Z,0
2022-09-18T00:35:53.710Z,0
2022-09-18T00:37:10.018Z,0
2022-09-18T00:38:26.305Z,0
2022-09-18T00:39:42.602Z,0
2022-09-18T00:40:58.885Z,0
2022-09-18T00:42:14.195Z,0
2022-09-18T00:43:30.502Z,0
2022-09-18T00:44:46.785Z,0
2022-09-18T00:46:03.077Z,0
2022-09-18T00:47:19.376Z,0
2022-09-18T00:48:35.678Z,0
2022-09-18T00:49:51.976Z,0
2022-09-18T00:51:08.259Z,0
2022-09-18T00:52:24.553Z,0
2022-09-18T00:53:40.844Z,0
2022-09-18T00:54:57.157Z,0
2022-09-18T00:56:13.451Z,0
2022-09-18T00:57:29.726Z,0
2022-09-18T00:58:45.052Z,0
2022-09-18T01:00:01.331Z,0
2022-09-18T01:01:17.634Z,0
2022-09-18T01:02:33.932Z,0
2022-09-18T01:03:50.217Z,0
2022-09-18T01:05:06.507Z,0
2022-09-18T01:06:22.802Z,0
2022-09-18T01:07:39.110Z,0
2022-09-18T01:08:55.398Z,0
2022-09-18T01:10:11.704Z,0
2022-09-18T01:11:27.983Z,0
2022-09-18T01:12:44.279Z,0
2022-09-18T01:14:00.569Z,0
2022-09-18T01:15:15.879Z,0
2022-09-18T01:16:32.178Z,0
2022-09-18T01:17:48.478Z,0
2022-09-18T01:19:04.760Z,0
2022-09-18T01:20:21.065Z,0
2022-09-18T01:21:37.361Z,0
2022-09-18T01:22:53.651Z,0
2022-09-18T01:24:09.942Z,0
2022-09-18T01:25:26.238Z,0
2022-09-18T01:26:42.541Z,0
2022-09-18T01:27:58.822Z,0
2022-09-18T01:29:15.119Z,0
2022-09-18T01:30:31.407Z,0
2022-09-18T01:31:46.727Z,0
2022-09-18T01:33:03.026Z,0
2022-09-18T01:34:19.308Z,0
2022-09-18T01:35:35.597Z,0
2022-09-18T01:36:51.898Z,0
2022-09-18T01:38:08.188Z,0
2022-09-18T01:39:24.500Z,0
2022-09-18T01:40:40.793Z,0
2022-09-18T01:41:57.077Z,0
2022-09-18T01:43:13.373Z,0
2022-09-18T01:44:29.662Z,0
2022-09-18T01:45:45.954Z,0
2022-09-18T01:47:02.250Z,0
2022-09-18T01:48:17.558Z,0
2022-09-18T01:49:33.860Z,0
2022-09-18T01:50:50.153Z,0
2022-09-18T01:52:06.458Z,0
2022-09-18T01:53:22.748Z,0
2022-09-18T01:54:39.033Z,0
2022-09-18T01:55:55.328Z,0
2022-09-18T01:57:11.622Z,0
2022-09-18T01:58:27.928Z,0
2022-09-18T01:59:44.207Z,0
2022-09-18T02:01:00.498Z,0
2022-09-18T02:02:16.802Z,0
2022-09-18T02:03:33.096Z,0
2022-09-18T02:04:48.400Z,0
2022-09-18T02:06:04.702Z,0
2022-09-18T02:07:20.994Z,0
2022-09-18T02:08:37.284Z,0
2022-09-18T02:09:53.577Z,0
2022-09-18T02:11:09.872Z,0
2022-09-18T02:12:26.163Z,0
2022-09-18T02:13:42.465Z,0
2022-09-18T02:14:58.760Z,0
2022-09-18T02:16:15.058Z,0
2022-09-18T02:17:31.337Z,0
2022-09-18T02:18:47.636Z,0
2022-09-18T02:20:03.927Z,0
2022-09-18T02:21:19.249Z,0
2022-09-18T02:22:35.549Z,0
2022-09-18T02:23:51.824Z,0
2022-09-18T02:25:08.126Z,0
2022-09-18T02:26:24.427Z,0
2022-09-18T02:27:39.730Z,0
2022-09-18T02:28:56.028Z,0
2022-09-18T02:30:12.329Z,0
2022-09-18T02:31:28.618Z,0
2022-09-18T02:32:44.919Z,0
2022-09-18T02:34:01.205Z,0
2022-09-18T02:35:17.514Z,0
2022-09-18T02:36:33.798Z,0
2022-09-18T02:37:50.098Z,0
2022-09-18T02:39:06.395Z,0
2022-09-18T02:41:38.969Z,0
2022-09-18T02:42:55.274Z,0
2022-09-18T02:44:10.572Z,0
2022-09-18T02:45:26.883Z,0
2022-09-18T02:46:43.158Z,0
2022-09-18T02:47:59.452Z,0
2022-09-18T02:49:15.756Z,0
2022-09-18T02:50:32.055Z,0
2022-09-18T02:51:48.341Z,0
2022-09-18T02:53:04.646Z,0
2022-09-18T02:54:20.931Z,0
2022-09-18T02:55:37.231Z,0
2022-09-18T02:56:53.511Z,0
2022-09-18T02:58:09.819Z,0
2022-09-18T02:59:26.111Z,0
2022-09-18T03:00:41.418Z,0
2022-09-18T03:01:57.706Z,0
2022-09-18T03:03:13.999Z,0
2022-09-18T03:04:30.309Z,0
2022-09-18T03:05:46.587Z,0
2022-09-18T03:07:02.880Z,0
2022-09-18T03:08:19.192Z,0
2022-09-18T03:09:35.486Z,0
2022-09-18T03:10:51.769Z,0
2022-09-18T03:12:08.062Z,0
2022-09-18T03:13:24.361Z,0
2022-09-18T03:14:40.649Z,0
2022-09-18T03:15:56.947Z,0
2022-09-18T03:17:12.256Z,0
2022-09-18T03:18:28.550Z,0
2022-09-18T03:19:44.841Z,0
2022-09-18T03:21:01.136Z,0
2022-09-18T03:22:17.444Z,0
2022-09-18T03:23:33.737Z,0
2022-09-18T03:24:50.015Z,0
2022-09-18T03:26:06.319Z,0
2022-09-18T03:27:22.607Z,0
2022-09-18T03:28:38.898Z,0
2022-09-18T03:29:55.193Z,0
2022-09-18T03:31:11.486Z,0
2022-09-18T03:32:27.794Z,0
2022-09-18T03:33:43.099Z,0
2022-09-18T03:34:59.390Z,0
2022-09-18T03:36:15.680Z,0
2022-09-18T03:37:31.977Z,0
2022-09-18T03:38:48.270Z,0
2022-09-18T03:40:04.568Z,0
2022-09-18T03:41:20.873Z,0
2022-09-18T03:42:37.160Z,0
2022-09-18T03:43:53.457Z,0
2022-09-18T03:45:09.745Z,0
2022-09-18T03:46:26.045Z,0
2022-09-18T03:47:42.330Z,0
2022-09-18T03:48:58.627Z,0
2022-09-18T03:50:13.936Z,0
2022-09-18T03:51:30.230Z,0
2022-09-18T03:52:46.524Z,0
2022-09-18T03:54:02.821Z,0
2022-09-18T03:55:19.114Z,0
2022-09-18T03:56:35.416Z,0
2022-09-18T03:57:51.706Z,0
2022-09-18T03:59:07.997Z,0
2022-09-18T04:00:24.285Z,0
2022-09-18T04:01:40.588Z,0
2022-09-18T04:02:56.878Z,0
2022-09-18T04:04:13.174Z,0
2022-09-18T04:05:29.471Z,0
2022-09-18T04:06:44.771Z,0
2022-09-18T04:08:01.085Z,0
2022-09-18T04:09:17.377Z,0
2022-09-18T04:10:33.655Z,0
2022-09-18T04:11:49.958Z,0
2022-09-18T04:13:06.250Z,0
2022-09-18T04:14:22.552Z,0
2022-09-18T04:15:38.830Z,0
2022-09-18T04:16:55.130Z,0
2022-09-18T04:18:11.421Z,0
2022-09-18T04:19:27.717Z,0
2022-09-18T04:20:44.010Z,0
2022-09-18T04:22:00.302Z,0
2022-09-18T04:23:15.559Z,0
2022-09-18T04:24:31.868Z,0
2022-09-18T04:25:48.123Z,0
2022-09-18T04:27:04.346Z,0
2022-09-18T04:28:20.596Z,0
2022-09-18T04:29:36.854Z,0
2022-09-18T04:30:53.083Z,0
2022-09-18T04:32:09.330Z,0
2022-09-18T04:33:25.557Z,0
2022-09-18T04:34:41.805Z,0
2022-09-18T04:35:58.047Z,0
2022-09-18T04:37:14.284Z,0
2022-09-18T04:39:45.792Z,0
2022-09-18T04:41:02.032Z,0
2022-09-18T04:42:18.263Z,0
2022-09-18T04:43:34.501Z,0
2022-09-18T04:44:50.735Z,0
2022-09-18T04:46:06.995Z,0
2022-09-18T04:47:23.224Z,0
2022-09-18T04:48:39.468Z,0
2022-09-18T04:49:55.704Z,0
2022-09-18T04:51:11.945Z,0
2022-09-18T04:52:28.182Z,0
2022-09-18T04:53:44.430Z,0
2022-09-18T04:55:00.660Z,0
2022-09-18T04:56:15.932Z,0
2022-09-18T04:57:32.158Z,5
2022-09-18T04:58:48.407Z,5
2022-09-18T05:00:04.639Z,5
2022-09-18T05:01:20.885Z,5
2022-09-18T05:02:37.128Z,5
2022-09-18T05:03:53.361Z,5
2022-09-18T05:05:09.602Z,5
2022-09-18T05:06:25.848Z,5
2022-09-18T05:07:42.078Z,5
2022-09-18T05:08:58.330Z,5
2022-09-18T05:10:14.573Z,5
2022-09-18T05:11:30.805Z,5
2022-09-18T05:12:46.055Z,5
2022-09-18T05:14:02.311Z,5
2022-09-18T05:15:18.541Z,11
2022-09-18T05:16:34.783Z,11
2022-09-18T05:17:51.037Z,11
2022-09-18T05:19:07.267Z,11
2022-09-18T05:20:23.498Z,5
2022-09-18T05:21:39.741Z,5
2022-09-18T05:22:55.995Z,5
2022-09-18T05:24:12.220Z,5
2022-09-18T05:25:28.475Z,5
2022-09-18T05:26:44.701Z,5
2022-09-18T05:28:00.960Z,5
2022-09-18T05:29:16.204Z,5
2022-09-18T05:31:48.681Z,11
2022-09-18T05:33:04.933Z,11
2022-09-18T05:34:21.158Z,11
2022-09-18T05:36:53.651Z,11
2022-09-18T05:38:09.885Z,11
2022-09-18T05:39:26.134Z,11
2022-09-18T05:40:42.358Z,11
2022-09-18T05:41:58.599Z,16
2022-09-18T05:43:14.853Z,16
2022-09-18T05:44:31.079Z,16
2022-09-18T05:45:46.338Z,16
2022-09-18T05:47:02.593Z,16
2022-09-18T05:48:18.823Z,22
2022-09-18T05:49:35.057Z,22
2022-09-18T05:50:51.310Z,22
2022-09-18T05:52:07.541Z,22
2022-09-18T05:53:23.782Z,22
2022-09-18T05:54:40.025Z,22
2022-09-18T05:55:56.264Z,22
2022-09-18T05:57:12.517Z,22
2022-09-18T05:58:28.746Z,22
2022-09-18T05:59:44.995Z,22
2022-09-18T06:01:01.224Z,22
2022-09-18T06:02:16.490Z,22
2022-09-18T06:03:32.718Z,22
2022-09-18T06:04:48.000Z,22
2022-09-18T06:06:05.211Z,22
2022-09-18T06:07:21.450Z,22
2022-09-18T06:08:37.683Z,16
2022-09-18T06:09:53.936Z,22
2022-09-18T06:11:10.168Z,22
2022-09-18T06:12:26.412Z,22
2022-09-18T06:13:42.643Z,28
2022-09-18T06:14:58.881Z,28
2022-09-18T06:16:15.130Z,28
2022-09-18T06:17:31.367Z,28
2022-09-18T06:18:46.633Z,28
2022-09-18T06:20:02.872Z,33
2022-09-18T06:21:19.100Z,33
2022-09-18T06:22:35.356Z,39
2022-09-18T06:23:51.597Z,45
2022-09-18T06:25:07.832Z,50
2022-09-18T06:26:24.073Z,56
2022-09-18T06:27:40.316Z,56
2022-09-18T06:28:56.543Z,56
2022-09-18T06:30:12.783Z,61
2022-09-18T06:31:29.019Z,78
2022-09-18T06:32:45.263Z,101
2022-09-18T06:34:01.506Z,101
2022-09-18T06:35:16.772Z,112
2022-09-18T06:36:33.006Z,146
2022-09-18T06:37:49.239Z,174
2022-09-18T06:39:05.483Z,281
2022-09-18T06:40:21.729Z,562
2022-09-18T06:41:37.977Z,315
2022-09-18T06:42:53.239Z,1687
2022-09-18T06:44:09.488Z,196
2022-09-18T06:45:25.712Z,123
2022-09-18T06:46:41.954Z,101
2022-09-18T06:47:58.206Z,101
2022-09-18T06:49:14.441Z,123
2022-09-18T06:50:30.675Z,225
2022-09-18T06:51:46.918Z,219
2022-09-18T06:53:03.154Z,686
2022-09-18T06:54:19.401Z,286
2022-09-18T06:55:35.638Z,759
2022-09-18T06:56:51.880Z,950
2022-09-18T06:58:08.113Z,168
2022-09-18T06:59:23.381Z,247
2022-09-18T07:00:39.639Z,1170
2022-09-18T07:01:55.872Z,1378
2022-09-18T07:04:28.357Z,1620
2022-09-18T07:05:44.589Z,1366
2022-09-18T07:07:00.830Z,1355
2022-09-18T07:08:17.080Z,1456
2022-09-18T07:09:33.300Z,1389
2022-09-18T07:10:49.553Z,1400
2022-09-18T07:12:05.786Z,1108
2022-09-18T07:13:22.037Z,1366
2022-09-18T07:14:38.262Z,376
2022-09-18T07:15:53.527Z,421
2022-09-18T07:17:09.769Z,286
2022-09-18T07:18:26.004Z,264
2022-09-18T07:20:58.502Z,1501
2022-09-18T07:22:14.734Z,697
2022-09-18T07:23:30.973Z,472
2022-09-18T07:24:47.227Z,427
2022-09-18T07:26:03.463Z,416
2022-09-18T07:27:19.695Z,337
2022-09-18T07:28:35.930Z,658
2022-09-18T07:29:52.175Z,534
2022-09-18T07:31:08.410Z,646
2022-09-18T07:32:23.672Z,697
2022-09-18T07:33:39.924Z,540
2022-09-18T07:34:56.157Z,720
2022-09-18T07:36:12.398Z,315
2022-09-18T07:37:28.639Z,1867
2022-09-18T07:38:44.894Z,562
2022-09-18T07:40:01.134Z,1923
2022-09-18T07:41:17.369Z,1305
2022-09-18T07:42:33.603Z,1451
2022-09-18T07:43:49.846Z,585
2022-09-18T07:45:06.091Z,241
2022-09-18T07:46:22.318Z,281
2022-09-18T07:47:38.568Z,444
2022-09-18T07:48:53.825Z,213
2022-09-18T07:50:10.070Z,247
2022-09-18T07:51:26.304Z,303
2022-09-18T07:52:42.552Z,303
2022-09-18T07:53:58.794Z,2160
2022-09-18T07:55:15.033Z,348
2022-09-18T07:56:31.266Z,1597
2022-09-18T07:57:47.516Z,1991
2022-09-18T07:59:03.753Z,2120
2022-09-18T08:00:19.996Z,691
2022-09-18T08:01:36.245Z,596
2022-09-18T08:02:52.475Z,905
2022-09-18T08:04:08.714Z,1541
2022-09-18T08:05:23.966Z,365
2022-09-18T08:06:40.205Z,337
2022-09-18T08:07:56.455Z,275
2022-09-18T08:09:12.693Z,253
2022-09-18T08:10:28.925Z,180
2022-09-18T08:11:45.176Z,174
2022-09-18T08:13:01.421Z,247
2022-09-18T08:14:17.650Z,213
2022-09-18T08:15:33.890Z,213
2022-09-18T08:16:50.124Z,275
2022-09-18T08:18:06.364Z,292
2022-09-18T08:19:22.621Z,270
2022-09-18T08:20:38.848Z,202
2022-09-18T08:21:54.102Z,191
2022-09-18T08:23:10.342Z,180
2022-09-18T08:24:26.582Z,208
2022-09-18T08:25:42.839Z,455
2022-09-18T08:26:59.061Z,253
2022-09-18T08:28:15.318Z,371
2022-09-18T08:29:31.557Z,241
2022-09-18T08:30:47.795Z,191
2022-09-18T08:32:04.027Z,185
2022-09-18T08:33:20.260Z,180
2022-09-18T08:34:36.507Z,163
2022-09-18T08:35:52.754Z,140
2022-09-18T08:37:08.990Z,646
2022-09-18T08:38:24.262Z,2745
2022-09-18T08:39:40.497Z,2064
2022-09-18T08:40:56.739Z,315
2022-09-18T08:42:12.990Z,2126
2022-09-18T08:43:29.234Z,202
2022-09-18T08:44:45.465Z,140
2022-09-18T08:46:01.708Z,180
2022-09-18T08:47:17.961Z,2666
2022-09-18T08:48:34.193Z,337
2022-09-18T08:49:50.449Z,421
2022-09-18T08:51:06.681Z,309
2022-09-18T08:52:22.911Z,213
2022-09-18T08:53:39.157Z,180
2022-09-18T08:54:54.410Z,438
2022-09-18T08:56:10.653Z,219
2022-09-18T08:57:26.892Z,236
2022-09-18T08:58:43.133Z,202
2022-09-18T08:59:59.370Z,208
2022-09-18T09:01:15.609Z,270
2022-09-18T09:02:31.854Z,253
2022-09-18T09:03:48.116Z,1940
2022-09-18T09:05:04.342Z,2947
2022-09-18T09:06:20.597Z,2548
2022-09-18T09:07:36.830Z,720
2022-09-18T09:08:53.071Z,326
2022-09-18T09:10:09.304Z,360
2022-09-18T09:11:24.555Z,230
2022-09-18T09:12:40.803Z,146
2022-09-18T09:13:57.040Z,112
2022-09-18T09:15:13.280Z,112
2022-09-18T09:16:29.533Z,135
2022-09-18T09:17:45.756Z,140
2022-09-18T09:19:02.007Z,157
2022-09-18T09:20:18.245Z,258
2022-09-18T09:21:34.482Z,1085
2022-09-18T09:22:50.724Z,298
2022-09-18T09:24:06.968Z,309
2022-09-18T09:25:23.203Z,241
2022-09-18T09:26:39.450Z,196
2022-09-18T09:27:54.693Z,163
2022-09-18T09:29:10.936Z,163
2022-09-18T09:30:27.179Z,180
2022-09-18T09:31:43.417Z,331
2022-09-18T09:32:59.670Z,483
2022-09-18T09:34:15.897Z,787
2022-09-18T09:35:32.132Z,1653
2022-09-18T09:36:48.377Z,523
2022-09-18T09:38:04.620Z,843
2022-09-18T09:39:20.858Z,2019
2022-09-18T09:40:37.098Z,843
2022-09-18T09:41:53.341Z,399
2022-09-18T09:43:09.574Z,1524
2022-09-18T09:44:24.839Z,3273
2022-09-18T09:45:41.074Z,382
2022-09-18T09:46:57.331Z,2520
2022-09-18T09:48:13.561Z,320
2022-09-18T09:49:29.808Z,298
2022-09-18T09:50:46.044Z,213
2022-09-18T09:52:02.300Z,2396
2022-09-18T09:53:18.535Z,3386
2022-09-18T09:54:34.787Z,3189
2022-09-18T09:55:51.030Z,258
2022-09-18T09:57:07.274Z,911
2022-09-18T09:58:23.515Z,286
2022-09-18T09:59:39.763Z,2604
2022-09-18T10:00:55.016Z,2446
2022-09-18T10:02:11.252Z,303
2022-09-18T10:03:27.507Z,2756
2022-09-18T10:04:43.755Z,2154
2022-09-18T10:05:59.997Z,2790
2022-09-18T10:07:16.230Z,2559
2022-09-18T10:08:32.468Z,2261
2022-09-18T10:09:48.706Z,2953
2022-09-18T10:11:04.943Z,3020
2022-09-18T10:12:21.191Z,2244
2022-09-18T10:13:37.435Z,1018
2022-09-18T10:14:53.681Z,1698
2022-09-18T10:16:09.906Z,3133
2022-09-18T10:17:25.173Z,500
2022-09-18T10:18:41.409Z,534
2022-09-18T10:19:57.655Z,410
2022-09-18T10:21:13.894Z,1299
2022-09-18T10:22:30.141Z,1794
2022-09-18T10:23:46.369Z,309
2022-09-18T10:25:02.613Z,275
2022-09-18T10:26:18.857Z,393
2022-09-18T10:27:35.096Z,838
2022-09-18T10:28:51.333Z,331
2022-09-18T10:30:07.573Z,320
2022-09-18T10:31:23.813Z,281
2022-09-18T10:32:40.060Z,292
2022-09-18T10:33:55.312Z,450
2022-09-18T10:35:11.547Z,466
2022-09-18T10:36:27.802Z,354
2022-09-18T10:37:44.045Z,253
2022-09-18T10:39:00.277Z,202
2022-09-18T10:40:16.508Z,303
2022-09-18T10:41:32.762Z,309
2022-09-18T10:42:48.997Z,303
2022-09-18T10:44:05.246Z,275
2022-09-18T10:45:21.481Z,270
2022-09-18T10:46:37.718Z,371
2022-09-18T10:47:53.947Z,405
2022-09-18T10:49:10.192Z,781
2022-09-18T10:50:25.446Z,421
2022-09-18T10:51:41.684Z,1029
2022-09-18T10:52:57.931Z,562
2022-09-18T10:54:14.164Z,540
2022-09-18T10:55:30.410Z,787
2022-09-18T10:56:46.647Z,388
2022-09-18T10:58:01.909Z,371
2022-09-18T10:59:18.160Z,382
2022-09-18T11:00:34.399Z,343
2022-09-18T11:01:50.631Z,433
2022-09-18T11:03:06.871Z,331
2022-09-18T11:04:23.111Z,388
2022-09-18T11:05:39.360Z,455
2022-09-18T11:06:55.585Z,393
2022-09-18T11:08:11.844Z,455
2022-09-18T11:09:28.081Z,410
2022-09-18T11:10:44.316Z,393
2022-09-18T11:12:00.555Z,393
2022-09-18T11:13:16.801Z,376
2022-09-18T11:14:32.060Z,360
2022-09-18T11:15:48.300Z,360
2022-09-18T11:17:04.525Z,360
2022-09-18T11:18:20.780Z,371
2022-09-18T11:19:37.012Z,371
2022-09-18T11:20:53.258Z,337
2022-09-18T11:22:09.490Z,371
2022-09-18T11:23:25.728Z,371
2022-09-18T11:24:41.967Z,365
2022-09-18T11:25:58.208Z,388
2022-09-18T11:27:14.444Z,416
2022-09-18T11:28:30.696Z,331
2022-09-18T11:29:46.921Z,326
2022-09-18T11:31:02.181Z,309
2022-09-18T11:32:18.429Z,298
2022-09-18T11:33:34.660Z,315
2022-09-18T11:34:50.910Z,320
2022-09-18T11:36:07.149Z,331
2022-09-18T11:37:23.394Z,337
2022-09-18T11:38:39.624Z,337
2022-09-18T11:39:55.871Z,331
2022-09-18T11:41:12.107Z,354
2022-09-18T11:42:28.340Z,371
2022-09-18T11:43:44.582Z,388
2022-09-18T11:45:00.828Z,371
2022-09-18T11:46:17.079Z,382
2022-09-18T11:47:32.320Z,376
2022-09-18T11:48:48.564Z,354
2022-09-18T11:50:04.813Z,365
2022-09-18T11:51:21.042Z,354
2022-09-18T11:52:37.280Z,365
2022-09-18T11:53:53.522Z,393
2022-09-18T11:55:09.756Z,348
2022-09-18T11:56:26.000Z,303
2022-09-18T11:57:42.243Z,292
2022-09-18T11:58:58.480Z,298
2022-09-18T12:00:14.719Z,303
2022-09-18T12:01:30.966Z,326
2022-09-18T12:02:47.202Z,292
2022-09-18T12:04:02.461Z,247
2022-09-18T12:05:18.692Z,241
2022-09-18T12:06:34.951Z,253
2022-09-18T12:07:51.172Z,202
2022-09-18T12:09:07.415Z,219
2022-09-18T12:10:23.663Z,270
2022-09-18T12:11:39.906Z,326
2022-09-18T12:12:56.137Z,331
2022-09-18T12:14:12.372Z,309
2022-09-18T12:15:28.622Z,275
2022-09-18T12:16:44.860Z,270
2022-09-18T12:18:01.110Z,191
2022-09-18T12:19:17.332Z,135
2022-09-18T12:20:32.599Z,157
2022-09-18T12:21:48.840Z,185
2022-09-18T12:23:05.080Z,185
2022-09-18T12:24:21.310Z,196
2022-09-18T12:25:37.559Z,202
2022-09-18T12:26:53.797Z,191
2022-09-18T12:28:10.028Z,151
2022-09-18T12:29:26.285Z,129
2022-09-18T12:30:42.514Z,118
2022-09-18T12:33:15.011Z,101
2022-09-18T12:34:31.235Z,84
2022-09-18T12:35:47.485Z,84
2022-09-18T12:37:02.730Z,95
2022-09-18T12:38:18.987Z,90
2022-09-18T12:39:35.209Z,84
2022-09-18T12:40:51.453Z,78
2022-09-18T12:42:07.692Z,73
2022-09-18T12:43:23.927Z,67
2022-09-18T12:44:40.166Z,73
2022-09-18T12:45:56.418Z,78
2022-09-18T12:47:12.665Z,84
2022-09-18T12:48:28.886Z,78
2022-09-18T12:49:45.126Z,73
2022-09-18T12:51:01.373Z,73
2022-09-18T12:52:17.618Z,78
2022-09-18T12:53:32.882Z,78
2022-09-18T12:54:49.115Z,73
2022-09-18T12:56:05.351Z,73
2022-09-18T12:57:21.598Z,73
2022-09-18T12:58:37.833Z,67
2022-09-18T12:59:54.067Z,67
2022-09-18T13:01:10.314Z,67
2022-09-18T13:02:26.556Z,56
2022-09-18T13:03:42.795Z,61
2022-09-18T13:04:59.026Z,56
2022-09-18T13:06:15.268Z,56
2022-09-18T13:07:31.504Z,56
2022-09-18T13:08:47.761Z,50
2022-09-18T13:10:03.019Z,45
2022-09-18T13:11:19.247Z,45
2022-09-18T13:12:35.488Z,39
2022-09-18T13:13:51.733Z,33
2022-09-18T13:15:07.965Z,28
2022-09-18T13:16:24.204Z,28
2022-09-18T13:17:40.457Z,33
2022-09-18T13:18:56.684Z,33
2022-09-18T13:20:12.938Z,33
2022-09-18T13:21:29.166Z,39
2022-09-18T13:22:45.421Z,39
2022-09-18T13:24:01.650Z,45
2022-09-18T13:25:17.883Z,45
2022-09-18T13:26:33.139Z,45
2022-09-18T13:27:49.386Z,45
2022-09-18T13:29:05.619Z,45
2022-09-18T13:30:21.875Z,39
2022-09-18T13:31:38.103Z,39
2022-09-18T13:32:54.360Z,39
2022-09-18T13:34:10.590Z,39
2022-09-18T13:35:26.840Z,45
2022-09-18T13:36:43.069Z,45
2022-09-18T13:37:59.000Z,45
2022-09-18T13:39:15.549Z,45
2022-09-18T13:40:31.798Z,45
2022-09-18T13:41:48.026Z,45
2022-09-18T13:43:03.292Z,45
2022-09-18T13:44:19.535Z,45
2022-09-18T13:45:35.769Z,39
2022-09-18T13:46:52.011Z,39
2022-09-18T13:48:08.249Z,33
2022-09-18T13:49:24.495Z,33
2022-09-18T13:50:40.725Z,28
2022-09-18T13:51:56.968Z,28
2022-09-18T13:53:13.204Z,22
2022-09-18T13:54:29.446Z,28
2022-09-18T13:55:45.681Z,28
2022-09-18T13:57:01.926Z,33
2022-09-18T13:58:18.179Z,39
2022-09-18T13:59:33.422Z,45
2022-09-18T14:00:49.671Z,50
2022-09-18T14:02:05.906Z,50
2022-09-18T14:03:22.153Z,50
2022-09-18T14:04:38.380Z,50
2022-09-18T14:05:54.633Z,50
2022-09-18T14:07:10.861Z,50
2022-09-18T14:08:27.103Z,50
2022-09-18T14:09:43.352Z,50
2022-09-18T14:10:59.591Z,50
2022-09-18T14:12:15.831Z,50
2022-09-18T14:13:32.065Z,45
2022-09-18T14:14:48.314Z,45
2022-09-18T14:16:03.557Z,39
2022-09-18T14:17:19.798Z,39
2022-09-18T14:18:36.051Z,45
2022-09-18T14:19:52.276Z,45
2022-09-18T14:21:08.529Z,45
2022-09-18T14:22:24.763Z,45
2022-09-18T14:23:41.009Z,45
2022-09-18T14:24:57.237Z,45
2022-09-18T14:26:13.492Z,45
2022-09-18T14:27:29.723Z,45
2022-09-18T14:28:45.963Z,45
2022-09-18T14:30:02.203Z,45
2022-09-18T14:31:18.000Z,45
2022-09-18T14:32:33.703Z,45
2022-09-18T14:33:49.935Z,39
2022-09-18T14:35:06.179Z,39
2022-09-18T14:36:22.430Z,39
2022-09-18T14:37:38.665Z,39
2022-09-18T14:38:54.899Z,39
2022-09-18T14:40:11.155Z,39
2022-09-18T14:41:27.376Z,39
2022-09-18T14:42:43.632Z,39
2022-09-18T14:43:59.869Z,39
2022-09-18T14:45:16.106Z,39
2022-09-18T14:46:32.353Z,39
2022-09-18T14:47:48.585Z,39
2022-09-18T14:49:03.839Z,39
2022-09-18T14:50:20.078Z,39
2022-09-18T14:51:36.313Z,39
2022-09-18T14:52:52.555Z,39
2022-09-18T14:54:08.803Z,39
2022-09-18T14:55:25.049Z,39
2022-09-18T14:56:41.285Z,33
2022-09-18T14:57:57.530Z,33
2022-09-18T14:59:13.772Z,33
2022-09-18T15:00:30.008Z,33
2022-09-18T15:01:46.238Z,39
2022-09-18T15:03:02.491Z,39
2022-09-18T15:04:18.738Z,39
2022-09-18T15:05:33.979Z,39
2022-09-18T15:06:50.228Z,39
2022-09-18T15:08:06.472Z,39
2022-09-18T15:09:22.709Z,39
2022-09-18T15:10:38.943Z,45
2022-09-18T15:13:11.431Z,39
2022-09-18T15:14:26.683Z,39
2022-09-18T15:15:42.936Z,39
2022-09-18T15:16:59.173Z,39
2022-09-18T15:18:15.408Z,39
2022-09-18T15:19:31.644Z,39
2022-09-18T15:20:47.882Z,39
2022-09-18T15:22:04.123Z,33
2022-09-18T15:23:20.362Z,33
2022-09-18T15:24:36.605Z,33
2022-09-18T15:25:52.846Z,33
2022-09-18T15:27:09.092Z,33
2022-09-18T15:28:25.329Z,33
2022-09-18T15:29:41.577Z,28
2022-09-18T15:30:56.818Z,28
2022-09-18T15:32:13.058Z,28
2022-09-18T15:33:29.302Z,28
2022-09-18T15:34:45.538Z,28
2022-09-18T15:36:01.783Z,22
2022-09-18T15:37:18.025Z,22
2022-09-18T15:38:34.262Z,22
2022-09-18T15:39:50.513Z,22
2022-09-18T15:41:06.743Z,22
2022-09-18T15:42:22.980Z,22
2022-09-18T15:43:39.233Z,22
2022-09-18T15:44:55.469Z,16
2022-09-18T15:46:11.707Z,16
2022-09-18T15:47:26.954Z,16
2022-09-18T15:48:43.194Z,16
2022-09-18T15:49:59.437Z,16
2022-09-18T15:51:15.685Z,16
2022-09-18T15:52:31.932Z,11
2022-09-18T15:53:48.154Z,11
2022-09-18T15:55:04.409Z,11
2022-09-18T15:56:20.640Z,11
2022-09-18T15:57:36.879Z,11
2022-09-18T15:58:53.117Z,11
2022-09-18T16:00:09.359Z,11
2022-09-18T16:01:25.595Z,11
2022-09-18T16:02:41.850Z,16
2022-09-18T16:03:57.100Z,16
2022-09-18T16:05:13.339Z,16
2022-09-18T16:06:29.591Z,16
2022-09-18T16:07:45.825Z,16
2022-09-18T16:09:02.061Z,16
2022-09-18T16:10:18.308Z,16
2022-09-18T16:11:34.540Z,16
2022-09-18T16:12:50.783Z,11
2022-09-18T16:14:07.016Z,11
2022-09-18T16:15:23.262Z,11
2022-09-18T16:16:39.497Z,11
2022-09-18T16:17:55.746Z,11
2022-09-18T16:19:11.974Z,11
2022-09-18T16:20:27.245Z,11
2022-09-18T16:21:43.489Z,11
2022-09-18T16:22:59.726Z,11
2022-09-18T16:24:15.966Z,5
2022-09-18T16:25:32.201Z,5
2022-09-18T16:26:48.439Z,5
2022-09-18T16:28:04.679Z,5
2022-09-18T16:29:20.911Z,5
2022-09-18T16:30:37.153Z,5
2022-09-18T16:31:53.401Z,5
2022-09-18T16:33:09.644Z,5
2022-09-18T16:34:25.884Z,5
2022-09-18T16:35:42.131Z,5
2022-09-18T16:36:57.387Z,5
2022-09-18T16:38:13.609Z,5
2022-09-18T16:39:29.864Z,5
2022-09-18T16:40:46.105Z,5
2022-09-18T16:42:02.333Z,0
2022-09-18T16:43:18.580Z,0
2022-09-18T16:44:34.811Z,5
2022-09-18T16:45:51.055Z,5
2022-09-18T16:47:07.299Z,5
2022-09-18T16:48:23.544Z,5
2022-09-18T16:49:39.771Z,5
2022-09-18T16:50:56.028Z,0
2022-09-18T16:52:12.252Z,0
2022-09-18T16:53:27.525Z,0
2022-09-18T16:54:43.759Z,0
2022-09-18T16:55:59.995Z,0
2022-09-18T16:57:16.226Z,0
2022-09-18T16:58:32.468Z,0
2022-09-18T16:59:48.723Z,0
2022-09-18T17:01:04.961Z,0
2022-09-18T17:02:21.195Z,0
2022-09-18T17:03:37.443Z,0
2022-09-18T17:04:53.686Z,0
2022-09-18T17:06:09.911Z,0
2022-09-18T17:07:26.162Z,0
2022-09-18T17:08:42.404Z,0
2022-09-18T17:09:57.656Z,0
2022-09-18T17:11:13.893Z,0
2022-09-18T17:12:30.135Z,0
2022-09-18T17:13:46.377Z,0
2022-09-18T17:15:02.625Z,0
2022-09-18T17:16:18.856Z,0
2022-09-18T17:17:35.090Z,0
2022-09-18T17:18:51.338Z,0
2022-09-18T17:20:07.576Z,0
2022-09-18T17:21:23.821Z,0
2022-09-18T17:22:40.052Z,0
2022-09-18T17:23:56.293Z,0
2022-09-18T17:25:12.543Z,0
2022-09-18T17:26:27.789Z,0
2022-09-18T17:27:44.028Z,0
2022-09-18T17:29:00.263Z,0
2022-09-18T17:30:16.526Z,0
2022-09-18T17:31:32.747Z,0
2022-09-18T17:32:48.992Z,0
2022-09-18T17:34:05.238Z,0
2022-09-18T17:35:21.465Z,0
2022-09-18T17:36:37.712Z,0
2022-09-18T17:37:53.963Z,0
2022-09-18T17:39:10.194Z,0
2022-09-18T17:40:26.430Z,0
2022-09-18T17:41:42.671Z,0
2022-09-18T17:42:57.927Z,0
2022-09-18T17:44:14.219Z,0
2022-09-18T17:45:30.512Z,0
2022-09-18T17:46:46.821Z,0
2022-09-18T17:48:03.117Z,0
2022-09-18T17:49:19.403Z,0
2022-09-18T17:50:35.689Z,0
2022-09-18T17:51:51.998Z,0
2022-09-18T17:53:08.285Z,0
2022-09-18T17:54:24.579Z,0
2022-09-18T17:55:40.872Z,0
2022-09-18T17:56:57.166Z,0
2022-09-18T17:58:13.466Z,0
2022-09-18T18:00:45.070Z,0
2022-09-18T18:02:01.360Z,0
2022-09-18T18:03:17.652Z,0
2022-09-18T18:04:33.956Z,0
2022-09-18T18:05:50.248Z,0
2022-09-18T18:07:06.541Z,0
2022-09-18T18:08:22.838Z,0
2022-09-18T18:09:39.129Z,0
2022-09-18T18:10:55.411Z,0
2022-09-18T18:12:11.721Z,0
2022-09-18T18:13:28.004Z,0
2022-09-18T18:14:44.313Z,0
2022-09-18T18:15:59.616Z,0
2022-09-18T18:17:15.905Z,0